createdAt,value
2019-02-24T00:01:31.721Z,-3.90
2019-02-24T00:04:39.291Z,-3.80
2019-02-24T00:07:46.884Z,-3.70
2019-02-24T00:10:55.374Z,-3.70
2019-02-24T00:14:02.852Z,-3.70
2019-02-24T00:17:10.322Z,-3.60
2019-02-24T00:20:17.920Z,-3.50
2019-02-24T00:23:25.448Z,-3.40
2019-02-24T00:26:33.099Z,-3.40
2019-02-24T00:29:41.683Z,-3.40
2019-02-24T00:32:49.182Z,-3.40
2019-02-24T00:35:56.740Z,-3.40
2019-02-24T00:39:04.590Z,-3.40
2019-02-24T00:42:13.643Z,-3.40
2019-02-24T00:45:21.254Z,-3.40
2019-02-24T00:48:28.851Z,-3.40
2019-02-24T00:51:36.487Z,-3.40
2019-02-24T00:54:44.506Z,-3.30
2019-02-24T00:57:52.048Z,-3.20
2019-02-24T01:00:59.735Z,-3.20
2019-02-24T01:04:08.036Z,-3.20
2019-02-24T01:07:15.632Z,-3.20
2019-02-24T01:10:23.162Z,-3.20
2019-02-24T01:13:30.710Z,-3.10
2019-02-24T01:16:38.218Z,-3.10
2019-02-24T01:19:46.882Z,-3.00
2019-02-24T01:22:54.459Z,-3.00
2019-02-24T01:26:02.110Z,-2.90
2019-02-24T01:29:09.640Z,-2.90
2019-02-24T01:32:17.232Z,-2.80
2019-02-24T01:35:24.874Z,-2.80
2019-02-24T01:38:32.491Z,-2.80
2019-02-24T01:41:40.270Z,-2.70
2019-02-24T01:44:47.858Z,-2.70
2019-02-24T01:47:55.410Z,-2.70
2019-02-24T01:51:04.096Z,-2.70
2019-02-24T01:54:11.694Z,-2.70
2019-02-24T01:57:19.170Z,-2.70
2019-02-24T02:00:26.696Z,-2.70
2019-02-24T02:03:34.368Z,-2.70
2019-02-24T02:06:42.050Z,-2.80
2019-02-24T02:09:49.908Z,-2.80
2019-02-24T02:12:57.465Z,-2.70
2019-02-24T02:16:06.318Z,-2.80
2019-02-24T02:19:13.858Z,-2.70
2019-02-24T02:22:21.514Z,-2.80
2019-02-24T02:25:29.023Z,-2.70
2019-02-24T02:28:43.777Z,-2.70
2019-02-24T02:31:46.462Z,-2.80
2019-02-24T02:34:54.024Z,-2.80
2019-02-24T02:38:04.674Z,-2.70
2019-02-24T02:41:12.282Z,-2.60
2019-02-24T02:44:19.779Z,-2.50
2019-02-24T02:47:27.254Z,-2.50
2019-02-24T02:50:34.772Z,-2.50
2019-02-24T02:53:42.291Z,-2.40
2019-02-24T02:56:49.918Z,-2.40
2019-02-24T02:59:57.487Z,-2.50
2019-02-24T03:03:05.276Z,-2.50
2019-02-24T03:06:38.236Z,-2.50
2019-02-24T03:09:45.919Z,-2.50
2019-02-24T03:12:53.690Z,-2.50
2019-02-24T03:16:01.329Z,-2.50
2019-02-24T03:19:10.153Z,-2.50
2019-02-24T03:22:17.839Z,-2.50
2019-02-24T03:25:25.368Z,-2.50
2019-02-24T03:28:33.058Z,-2.50
2019-02-24T03:31:40.633Z,-2.40
2019-02-24T03:34:48.148Z,-2.40
2019-02-24T03:37:55.632Z,-2.40
2019-02-24T03:41:03.157Z,-2.40
2019-02-24T03:44:10.633Z,-2.40
2019-02-24T03:47:18.277Z,-2.40
2019-02-24T03:50:25.848Z,-2.30
2019-02-24T03:53:33.524Z,-2.30
2019-02-24T03:56:41.128Z,-2.30
2019-02-24T03:59:49.107Z,-2.20
2019-02-24T04:02:56.663Z,-2.30
2019-02-24T04:06:04.256Z,-2.20
2019-02-24T04:09:11.796Z,-2.20
2019-02-24T04:12:19.504Z,-2.20
2019-02-24T04:15:27.114Z,-2.20
2019-02-24T04:18:34.600Z,-2.20
2019-02-24T04:21:42.113Z,-2.20
2019-02-24T04:24:49.677Z,-2.20
2019-02-24T04:27:57.241Z,-2.20
2019-02-24T04:31:04.942Z,-2.20
2019-02-24T04:34:12.534Z,-2.20
2019-02-24T04:37:20.882Z,-2.20
2019-02-24T04:40:28.429Z,-2.20
2019-02-24T04:43:35.985Z,-2.20
2019-02-24T04:46:43.529Z,-2.20
2019-02-24T04:49:51.184Z,-2.20
2019-02-24T04:52:58.752Z,-2.20
2019-02-24T04:56:06.337Z,-2.30
2019-02-24T04:59:13.910Z,-2.30
2019-02-24T05:02:21.370Z,-2.40
2019-02-24T05:05:28.979Z,-2.30
2019-02-24T05:08:36.681Z,-2.30
2019-02-24T05:11:44.147Z,-2.40
2019-02-24T05:14:51.682Z,-2.40
2019-02-24T05:17:59.224Z,-2.40
2019-02-24T05:21:06.754Z,-2.50
2019-02-24T05:24:14.967Z,-2.40
2019-02-24T05:27:22.591Z,-2.40
2019-02-24T05:30:31.233Z,-2.50
2019-02-24T05:33:38.786Z,-2.50
2019-02-24T05:36:46.465Z,-2.50
2019-02-24T05:39:53.985Z,-2.50
2019-02-24T05:43:01.510Z,-2.40
2019-02-24T05:46:09.139Z,-2.50
2019-02-24T05:49:16.677Z,-2.60
2019-02-24T05:52:24.178Z,-2.50
2019-02-24T05:55:31.745Z,-2.50
2019-02-24T05:58:39.450Z,-2.40
2019-02-24T06:01:47.023Z,-2.40
2019-02-24T06:04:54.582Z,-2.40
2019-02-24T06:08:03.830Z,-2.50
2019-02-24T06:11:11.369Z,-2.60
2019-02-24T06:14:18.855Z,-2.60
2019-02-24T06:17:26.507Z,-2.80
2019-02-24T06:20:34.025Z,-2.80
2019-02-24T06:23:41.551Z,-2.80
2019-02-24T06:26:49.158Z,-2.80
2019-02-24T06:30:04.495Z,-2.80
2019-02-24T06:33:05.867Z,-2.70
2019-02-24T06:36:13.389Z,-2.70
2019-02-24T06:39:20.897Z,-2.60
2019-02-24T06:42:28.411Z,-2.50
2019-02-24T06:45:36.000Z,-2.40
2019-02-24T06:48:43.607Z,-2.30
2019-02-24T06:51:51.180Z,-2.30
2019-02-24T06:54:58.738Z,-2.20
2019-02-24T06:58:06.337Z,-2.20
2019-02-24T07:01:13.865Z,-2.10
2019-02-24T07:04:21.470Z,-2.10
2019-02-24T07:07:28.988Z,-2.10
2019-02-24T07:10:36.491Z,-2.00
2019-02-24T07:13:44.046Z,-2.00
2019-02-24T07:16:51.607Z,-1.90
2019-02-24T07:19:59.263Z,-1.90
2019-02-24T07:23:07.234Z,-1.80
2019-02-24T07:26:14.817Z,-1.70
2019-02-24T07:29:22.531Z,-1.80
2019-02-24T07:32:30.093Z,-1.70
2019-02-24T07:35:37.633Z,-1.70
2019-02-24T07:38:45.655Z,-1.60
2019-02-24T07:41:53.238Z,-1.60
2019-02-24T07:45:00.804Z,-1.70
2019-02-24T07:48:08.409Z,-1.60
2019-02-24T07:51:15.991Z,-1.60
2019-02-24T07:54:23.513Z,-1.60
2019-02-24T07:57:31.181Z,-1.60
2019-02-24T08:00:38.673Z,-1.50
2019-02-24T08:03:46.235Z,-1.60
2019-02-24T08:06:53.719Z,-1.50
2019-02-24T08:10:01.279Z,-1.50
2019-02-24T08:13:08.955Z,-1.40
2019-02-24T08:16:16.481Z,-1.40
2019-02-24T08:19:23.991Z,-1.40
2019-02-24T08:22:31.591Z,-1.50
2019-02-24T08:25:39.227Z,-1.40
2019-02-24T08:28:46.823Z,-1.50
2019-02-24T08:31:54.371Z,-1.40
2019-02-24T08:35:01.974Z,-1.50
2019-02-24T08:38:09.801Z,-1.40
2019-02-24T08:41:18.009Z,-1.40
2019-02-24T08:44:26.705Z,-1.30
2019-02-24T08:47:34.309Z,-1.30
2019-02-24T08:50:42.027Z,-1.20
2019-02-24T08:53:49.671Z,-1.10
2019-02-24T08:56:57.262Z,-1.00
2019-02-24T09:00:05.131Z,-0.90
2019-02-24T09:03:14.249Z,-0.80
2019-02-24T09:06:22.297Z,-0.70
2019-02-24T09:09:29.951Z,-0.60
2019-02-24T09:12:37.557Z,-0.60
2019-02-24T09:15:45.126Z,-0.50
2019-02-24T09:18:52.779Z,-0.50
2019-02-24T09:22:00.311Z,-0.50
2019-02-24T09:25:07.842Z,-0.40
2019-02-24T09:28:15.419Z,-0.40
2019-02-24T09:31:23.319Z,-0.30
2019-02-24T09:34:30.859Z,-0.30
2019-02-24T09:37:38.488Z,-0.20
2019-02-24T09:40:46.071Z,-0.20
2019-02-24T09:43:53.685Z,-0.20
2019-02-24T09:47:01.184Z,-0.20
2019-02-24T09:50:08.943Z,-0.10
2019-02-24T09:53:16.587Z,0.00
2019-02-24T09:56:24.183Z,0.10
2019-02-24T09:59:31.673Z,0.30
2019-02-24T10:02:39.313Z,0.30
2019-02-24T10:05:46.821Z,0.40
2019-02-24T10:08:54.366Z,0.50
2019-02-24T10:12:01.937Z,0.50
2019-02-24T10:15:10.047Z,0.40
2019-02-24T10:18:17.642Z,0.40
2019-02-24T10:21:25.282Z,0.40
2019-02-24T10:24:32.782Z,0.30
2019-02-24T10:27:40.303Z,0.40
2019-02-24T10:30:49.253Z,0.50
2019-02-24T10:33:57.013Z,0.70
2019-02-24T10:37:04.527Z,0.80
2019-02-24T10:40:13.878Z,1.10
2019-02-24T10:43:21.688Z,1.30
2019-02-24T10:46:29.269Z,1.50
2019-02-24T10:49:36.810Z,1.70
2019-02-24T10:52:44.331Z,2.00
2019-02-24T10:55:52.984Z,2.20
2019-02-24T10:59:00.535Z,2.40
2019-02-24T11:02:08.148Z,2.70
2019-02-24T11:05:16.628Z,2.60
2019-02-24T11:08:24.205Z,2.70
2019-02-24T11:11:31.894Z,2.80
2019-02-24T11:14:40.489Z,2.90
2019-02-24T11:17:48.026Z,3.10
2019-02-24T11:20:55.629Z,3.30
2019-02-24T11:24:03.183Z,3.70
2019-02-24T11:27:10.782Z,3.70
2019-02-24T11:30:18.317Z,3.80
2019-02-24T11:33:25.909Z,3.70
2019-02-24T11:36:33.615Z,3.40
2019-02-24T11:39:41.310Z,3.20
2019-02-24T11:42:48.801Z,3.10
2019-02-24T11:45:56.490Z,3.30
2019-02-24T11:49:04.103Z,3.50
2019-02-24T11:52:11.685Z,3.60
2019-02-24T11:55:20.229Z,3.50
2019-02-24T11:58:27.852Z,3.60
2019-02-24T12:01:35.340Z,3.70
2019-02-24T12:04:42.989Z,4.10
2019-02-24T12:07:50.504Z,4.40
2019-02-24T12:10:59.093Z,4.50
2019-02-24T12:14:06.601Z,5.30
2019-02-24T12:17:14.109Z,6.20
2019-02-24T12:20:21.802Z,6.80
2019-02-24T12:23:29.297Z,7.20
2019-02-24T12:26:36.981Z,7.20
2019-02-24T12:29:44.637Z,7.00
2019-02-24T12:32:52.302Z,7.20
2019-02-24T12:35:59.897Z,7.10
2019-02-24T12:39:07.824Z,7.00
2019-02-24T12:42:16.448Z,6.70
2019-02-24T12:45:24.027Z,6.10
2019-02-24T12:48:31.625Z,5.80
2019-02-24T12:51:39.342Z,5.80
2019-02-24T12:54:46.842Z,5.70
2019-02-24T12:57:54.420Z,5.80
2019-02-24T13:01:01.939Z,5.60
2019-02-24T13:04:09.553Z,5.50
2019-02-24T13:07:17.544Z,5.40
2019-02-24T13:10:25.510Z,5.50
2019-02-24T13:13:33.177Z,5.40
2019-02-24T13:16:41.026Z,5.40
2019-02-24T13:19:48.720Z,5.50
2019-02-24T13:22:56.332Z,5.50
2019-02-24T13:26:04.020Z,5.60
2019-02-24T13:29:26.374Z,5.50
2019-02-24T13:32:36.264Z,5.40
2019-02-24T13:35:43.935Z,5.30
2019-02-24T13:38:51.488Z,5.20
2019-02-24T13:41:59.148Z,5.10
2019-02-24T13:45:08.560Z,5.10
2019-02-24T13:48:16.140Z,5.00
2019-02-24T13:51:25.045Z,5.10
2019-02-24T13:54:32.970Z,5.20
2019-02-24T13:57:41.293Z,5.10
2019-02-24T14:00:49.047Z,5.10
2019-02-24T14:03:56.695Z,5.00
2019-02-24T14:07:04.688Z,4.90
2019-02-24T14:10:13.200Z,4.70
2019-02-24T14:13:20.921Z,4.60
2019-02-24T14:16:28.514Z,4.30
2019-02-24T14:19:36.208Z,4.30
2019-02-24T14:22:44.140Z,4.20
2019-02-24T14:25:51.778Z,4.20
2019-02-24T14:29:00.008Z,4.10
2019-02-24T14:32:09.083Z,4.10
2019-02-24T14:35:16.948Z,4.00
2019-02-24T14:38:24.806Z,4.00
2019-02-24T14:41:32.563Z,4.00
2019-02-24T14:44:40.157Z,4.00
2019-02-24T14:47:50.631Z,4.00
2019-02-24T14:50:58.226Z,3.90
2019-02-24T14:54:05.914Z,3.90
2019-02-24T14:57:14.652Z,3.80
2019-02-24T15:00:23.459Z,3.80
2019-02-24T15:03:31.094Z,3.70
2019-02-24T15:06:39.540Z,3.70
2019-02-24T15:09:48.754Z,3.60
2019-02-24T15:12:56.383Z,3.60
2019-02-24T15:16:04.968Z,3.50
2019-02-24T15:19:12.526Z,3.50
2019-02-24T15:22:20.535Z,3.50
2019-02-24T15:25:28.156Z,3.50
2019-02-24T15:28:37.926Z,3.50
2019-02-24T15:31:46.737Z,3.40
2019-02-24T15:34:54.457Z,3.40
2019-02-24T15:38:02.093Z,3.40
2019-02-24T15:41:09.732Z,3.30
2019-02-24T15:44:17.240Z,3.30
2019-02-24T15:47:24.936Z,3.30
2019-02-24T15:50:32.742Z,3.20
2019-02-24T15:53:40.348Z,3.20
2019-02-24T15:56:47.935Z,3.10
2019-02-24T15:59:55.752Z,3.10
2019-02-24T16:03:03.455Z,3.00
2019-02-24T16:06:11.174Z,3.00
2019-02-24T16:09:19.733Z,2.90
2019-02-24T16:12:27.569Z,2.90
2019-02-24T16:15:35.236Z,2.90
2019-02-24T16:18:42.897Z,2.90
2019-02-24T16:21:50.916Z,2.90
2019-02-24T16:24:58.671Z,2.80
2019-02-24T16:28:06.512Z,2.80
2019-02-24T16:31:14.055Z,2.70
2019-02-24T16:34:21.738Z,2.70
2019-02-24T16:37:29.888Z,2.60
2019-02-24T16:40:37.696Z,2.60
2019-02-24T16:43:45.395Z,2.60
2019-02-24T16:46:53.099Z,2.50
2019-02-24T16:50:00.779Z,2.50
2019-02-24T16:53:08.518Z,2.50
2019-02-24T16:56:16.214Z,2.50
2019-02-24T16:59:24.950Z,2.50
2019-02-24T17:02:32.717Z,2.50
2019-02-24T17:05:40.407Z,2.50
2019-02-24T17:08:52.022Z,2.40
2019-02-24T17:11:57.388Z,2.40
2019-02-24T17:15:05.741Z,2.40
2019-02-24T17:18:13.604Z,2.30
2019-02-24T17:21:21.300Z,2.40
2019-02-24T17:24:28.953Z,2.30
2019-02-24T17:27:36.565Z,2.30
2019-02-24T17:30:44.236Z,2.20
2019-02-24T17:33:51.993Z,2.20
2019-02-24T17:36:59.673Z,2.20
2019-02-24T17:40:08.782Z,2.20
2019-02-24T17:43:16.356Z,2.20
2019-02-24T17:46:23.883Z,2.30
2019-02-24T17:49:31.573Z,2.30
2019-02-24T17:52:39.280Z,2.30
2019-02-24T17:55:46.899Z,2.30
2019-02-24T17:58:54.708Z,2.30
2019-02-24T18:02:02.398Z,2.30
2019-02-24T18:05:10.120Z,2.30
2019-02-24T18:08:17.760Z,2.30
2019-02-24T18:11:25.373Z,2.30
2019-02-24T18:14:32.990Z,2.30
2019-02-24T18:17:40.788Z,2.30
2019-02-24T18:20:48.554Z,2.30
2019-02-24T18:23:56.144Z,2.30
2019-02-24T18:27:03.821Z,2.30
2019-02-24T18:30:15.033Z,2.40
2019-02-24T18:33:22.926Z,2.40
2019-02-24T18:36:30.578Z,2.40
2019-02-24T18:39:38.921Z,2.40
2019-02-24T18:42:48.076Z,2.40
2019-02-24T18:45:55.745Z,2.40
2019-02-24T18:49:03.410Z,2.40
2019-02-24T18:52:11.030Z,2.40
2019-02-24T18:55:19.144Z,2.50
2019-02-24T18:58:26.957Z,2.50
2019-02-24T19:01:34.900Z,2.50
2019-02-24T19:04:42.650Z,2.50
2019-02-24T19:07:52.136Z,2.60
2019-02-24T19:11:00.015Z,2.60
2019-02-24T19:14:08.205Z,2.60
2019-02-24T19:17:16.062Z,2.60
2019-02-24T19:20:23.988Z,2.70
2019-02-24T19:23:31.679Z,2.70
2019-02-24T19:26:39.380Z,2.70
2019-02-24T19:29:47.305Z,2.70
2019-02-24T19:32:54.877Z,2.80
2019-02-24T19:36:02.811Z,2.80
2019-02-24T19:39:14.382Z,2.80
2019-02-24T19:42:21.970Z,2.80
2019-02-24T19:45:29.628Z,2.90
2019-02-24T19:48:41.983Z,2.90
2019-02-24T19:51:47.688Z,2.90
2019-02-24T19:54:55.586Z,3.00
2019-02-24T19:58:03.304Z,3.00
2019-02-24T20:01:11.066Z,3.00
2019-02-24T20:04:18.901Z,3.00
2019-02-24T20:07:26.639Z,3.00
2019-02-24T20:10:34.377Z,3.10
2019-02-24T20:13:42.145Z,3.10
2019-02-24T20:16:50.267Z,3.10
2019-02-24T20:19:58.069Z,3.20
2019-02-24T20:23:06.581Z,3.20
2019-02-24T20:26:21.597Z,3.20
2019-02-24T20:29:31.618Z,3.30
2019-02-24T20:32:48.612Z,3.30
2019-02-24T20:36:08.998Z,3.30
2019-02-24T20:39:22.573Z,3.30
2019-02-24T20:42:30.892Z,3.20
2019-02-24T20:45:38.710Z,3.20
2019-02-24T20:48:46.535Z,3.10
2019-02-24T20:51:54.896Z,3.10
2019-02-24T20:55:02.619Z,3.00
2019-02-24T20:58:10.282Z,3.00
2019-02-24T21:01:17.919Z,2.90
2019-02-24T21:04:25.603Z,2.90
2019-02-24T21:07:33.376Z,2.90
2019-02-24T21:10:41.014Z,2.90
2019-02-24T21:13:48.760Z,2.90
2019-02-24T21:16:56.479Z,2.90
2019-02-24T21:20:04.261Z,2.90
2019-02-24T21:23:11.958Z,2.80
2019-02-24T21:26:20.724Z,2.90
2019-02-24T21:29:28.505Z,2.90
2019-02-24T21:32:37.105Z,2.90
2019-02-24T21:35:46.505Z,2.90
2019-02-24T21:38:54.469Z,2.90
2019-02-24T21:42:02.162Z,2.90
2019-02-24T21:45:13.090Z,2.90
2019-02-24T21:48:21.099Z,2.90
2019-02-24T21:51:28.734Z,2.90
2019-02-24T21:54:36.899Z,2.90
2019-02-24T21:57:44.526Z,2.90
2019-02-24T22:00:52.123Z,2.90
2019-02-24T22:03:59.788Z,3.00
2019-02-24T22:07:08.531Z,3.00
2019-02-24T22:10:18.084Z,3.10
2019-02-24T22:13:25.742Z,3.10
2019-02-24T22:16:33.315Z,3.10
2019-02-24T22:19:41.008Z,3.20
2019-02-24T22:22:48.558Z,3.20
2019-02-24T22:25:56.135Z,3.20
2019-02-24T22:29:03.718Z,3.20
2019-02-24T22:32:11.323Z,3.20
2019-02-24T22:35:18.903Z,3.30
2019-02-24T22:38:26.559Z,3.30
2019-02-24T22:41:34.976Z,3.30
2019-02-24T22:44:42.611Z,3.30
2019-02-24T22:47:50.458Z,3.40
2019-02-24T22:50:58.044Z,3.40
2019-02-24T22:54:05.589Z,3.40
2019-02-24T22:57:13.192Z,3.40
2019-02-24T23:01:13.957Z,3.40
2019-02-24T23:04:22.764Z,3.50
2019-02-24T23:07:30.478Z,3.50
2019-02-24T23:10:38.111Z,3.40
2019-02-24T23:13:45.769Z,3.40
2019-02-24T23:16:53.611Z,3.40
2019-02-24T23:20:01.280Z,3.30
2019-02-24T23:23:10.485Z,3.30
2019-02-24T23:26:18.104Z,3.30
2019-02-24T23:29:26.686Z,3.30
2019-02-24T23:32:34.474Z,3.40
2019-02-24T23:35:42.105Z,3.40
2019-02-24T23:38:49.850Z,3.50
2019-02-24T23:41:57.587Z,3.50
2019-02-24T23:45:10.189Z,3.60
2019-02-24T23:48:14.697Z,3.60
2019-02-24T23:51:22.397Z,3.60
2019-02-24T23:54:29.924Z,3.60
2019-02-24T23:57:38.770Z,3.60
